Time;durP1;ratioP1;P1;durP2;ratioP2;P2;SDS_P1;SDS_P2;PMS_P1;PMS_P2;Temp;Humidity;BMP_temperature;BMP_pressure;BME280_temperature;BME280_humidity;BME280_pressure;Samples;Min_cycle;Max_cycle;Signal;HPM_P1;HPM_P2
2020/12/31 00:00:45;;;;;;;11.43;9.98;;;3.10;1.00;;;;;;5012237;28;21013;-78
2020/12/31 00:03:12;;;;;;;11.15;10.05;;;3.10;1.00;;;;;;5016137;28;20278;-79
2020/12/31 00:05:38;;;;;;;11.18;10.00;;;3.10;1.00;;;;;;5021939;28;20280;-80
2020/12/31 00:08:06;;;;;;;10.55;9.45;;;3.10;1.00;;;;;;5022380;28;20230;-78
2020/12/31 00:10:32;;;;;;;12.68;11.38;;;3.10;1.00;;;;;;5018766;28;21297;-81
2020/12/31 00:12:59;;;;;;;11.23;10.02;;;3.10;1.00;;;;;;5017160;28;20232;-78
2020/12/31 00:15:25;;;;;;;11.52;10.30;;;3.10;1.00;;;;;;5023712;28;20246;-80
2020/12/31 00:17:52;;;;;;;10.60;8.95;;;3.00;1.00;;;;;;5012132;28;20327;-80
2020/12/31 00:20:19;;;;;;;11.07;9.23;;;3.00;1.00;;;;;;5018304;28;20231;-79
2020/12/31 00:22:45;;;;;;;10.90;9.80;;;2.90;1.00;;;;;;5034707;28;20287;-80
2020/12/31 00:25:11;;;;;;;11.68;10.43;;;2.80;1.00;;;;;;5032879;28;20227;-80
2020/12/31 00:27:40;;;;;;;10.40;9.40;;;2.80;1.00;;;;;;5033387;28;20227;-80
2020/12/31 00:30:08;;;;;;;11.90;10.52;;;2.80;1.00;;;;;;5038406;28;20239;-80
2020/12/31 00:32:34;;;;;;;11.60;10.40;;;2.80;1.00;;;;;;5035731;28;20219;-78
2020/12/31 00:35:02;;;;;;;10.05;8.98;;;2.90;1.00;;;;;;5032694;28;20211;-79
2020/12/31 00:37:34;;;;;;;13.18;10.15;;;2.90;1.00;;;;;;5037683;28;20226;-79
2020/12/31 00:40:01;;;;;;;11.25;10.15;;;2.90;1.00;;;;;;5030810;28;21050;-81
2020/12/31 00:42:28;;;;;;;11.32;10.13;;;2.90;1.00;;;;;;5019584;28;20231;-80
2020/12/31 00:44:54;;;;;;;11.88;10.48;;;2.90;1.00;;;;;;5016706;28;20980;-79
2020/12/31 00:47:20;;;;;;;12.13;9.40;;;2.90;1.00;;;;;;5016171;28;20230;-79
2020/12/31 00:49:46;;;;;;;10.80;9.70;;;3.00;1.00;;;;;;5017452;28;20325;-81
2020/12/31 00:52:12;;;;;;;11.32;10.13;;;3.00;1.00;;;;;;5014222;28;20235;-79
2020/12/31 00:54:39;;;;;;;11.38;9.40;;;3.10;1.00;;;;;;5011619;28;20322;-81
2020/12/31 00:57:06;;;;;;;9.48;8.40;;;3.10;1.00;;;;;;5016700;28;20243;-80
2020/12/31 00:59:32;;;;;;;9.55;8.55;;;3.10;1.00;;;;;;5007283;28;20267;-81
2020/12/31 01:01:58;;;;;;;12.85;10.18;;;3.00;1.00;;;;;;5016366;28;20392;-79
2020/12/31 01:04:25;;;;;;;11.90;10.52;;;3.00;1.00;;;;;;5016347;28;20820;-78
2020/12/31 01:06:51;;;;;;;10.85;9.60;;;3.00;1.00;;;;;;5012812;28;20231;-78
2020/12/31 01:09:17;;;;;;;10.68;9.57;;;3.00;1.00;;;;;;5017477;28;20231;-78
2020/12/31 01:11:44;;;;;;;11.70;10.10;;;3.00;1.00;;;;;;5011850;28;20225;-80
2020/12/31 01:14:10;;;;;;;11.95;9.13;;;3.10;1.00;;;;;;5013863;28;20273;-78
2020/12/31 01:16:37;;;;;;;10.00;9.10;;;3.00;1.00;;;;;;5009062;28;20304;-79
2020/12/31 01:19:03;;;;;;;11.95;9.88;;;3.00;1.00;;;;;;5011251;28;20314;-78
2020/12/31 01:21:29;;;;;;;9.90;8.90;;;3.00;1.00;;;;;;5011103;28;20223;-76
2020/12/31 01:23:55;;;;;;;12.13;10.18;;;3.00;1.00;;;;;;5012650;28;20230;-78
2020/12/31 01:26:31;;;;;;;12.75;9.82;;;3.10;1.00;;;;;;5014438;28;20226;-80
2020/12/31 01:28:58;;;;;;;10.73;9.65;;;3.10;1.00;;;;;;5011573;28;20219;-77
2020/12/31 01:31:25;;;;;;;11.80;9.68;;;3.10;1.00;;;;;;5017937;28;20218;-77
2020/12/31 01:33:51;;;;;;;10.10;9.10;;;3.20;1.00;;;;;;5031247;28;20199;-76
2020/12/31 01:36:18;;;;;;;13.23;9.02;;;3.20;1.00;;;;;;5032477;28;20313;-78
2020/12/31 01:38:45;;;;;;;10.05;8.40;;;3.20;1.00;;;;;;5026961;28;20254;-78
2020/12/31 01:41:12;;;;;;;10.23;9.10;;;3.20;1.00;;;;;;5027062;28;20216;-78
2020/12/31 01:43:38;;;;;;;9.93;8.65;;;3.30;1.00;;;;;;5016038;28;20230;-78
2020/12/31 01:46:10;;;;;;;10.15;9.07;;;3.30;1.00;;;;;;5016071;28;20216;-78
2020/12/31 01:48:37;;;;;;;9.38;8.52;;;3.40;1.00;;;;;;5014855;28;20262;-78
2020/12/31 01:51:04;;;;;;;9.43;8.32;;;3.40;1.00;;;;;;5015095;28;20234;-79
2020/12/31 01:53:31;;;;;;;9.00;8.15;;;3.40;1.00;;;;;;5025712;28;20266;-78
2020/12/31 01:56:00;;;;;;;12.55;9.02;;;3.40;1.00;;;;;;5014675;28;20238;-79
2020/12/31 01:58:27;;;;;;;11.32;9.35;;;3.40;1.00;;;;;;5005734;28;20344;-79
2020/12/31 02:00:54;;;;;;;11.32;9.70;;;3.40;1.00;;;;;;5011682;28;20223;-78
2020/12/31 02:03:21;;;;;;;11.43;9.40;;;3.40;1.00;;;;;;5010142;28;20231;-79
2020/12/31 02:05:48;;;;;;;11.30;10.13;;;3.40;1.00;;;;;;5013494;28;20234;-79
2020/12/31 02:08:14;;;;;;;10.23;9.18;;;3.40;1.00;;;;;;5006889;28;20229;-79
2020/12/31 02:10:41;;;;;;;10.27;8.48;;;3.40;1.00;;;;;;5015186;28;20607;-78
2020/12/31 02:13:08;;;;;;;11.90;9.82;;;3.40;1.00;;;;;;5012735;28;20951;-79
2020/12/31 02:15:35;;;;;;;11.48;9.50;;;3.30;1.00;;;;;;5008305;28;20230;-79
2020/12/31 02:18:01;;;;;;;11.82;9.15;;;3.30;1.00;;;;;;5010717;28;20799;-79
2020/12/31 02:20:28;;;;;;;12.32;10.23;;;3.40;1.00;;;;;;5005042;28;20417;-79
2020/12/31 02:22:55;;;;;;;11.38;9.50;;;3.40;1.00;;;;;;5010727;28;20235;-78
2020/12/31 02:25:21;;;;;;;10.77;9.68;;;3.40;1.00;;;;;;5009368;28;20229;-81
2020/12/31 02:27:48;;;;;;;11.57;10.02;;;3.40;1.00;;;;;;5010335;28;21018;-80
2020/12/31 02:30:14;;;;;;;10.25;9.25;;;3.40;1.00;;;;;;5006632;28;20322;-79
2020/12/31 02:32:40;;;;;;;14.48;11.23;;;3.40;1.00;;;;;;5006386;28;20270;-80
2020/12/31 02:35:07;;;;;;;10.52;9.43;;;3.40;1.00;;;;;;5007015;28;20226;-79
2020/12/31 02:37:33;;;;;;;12.10;9.27;;;3.40;1.00;;;;;;5010303;28;20725;-79
2020/12/31 02:40:00;;;;;;;11.98;9.40;;;3.30;1.00;;;;;;5010127;28;20254;-80
2020/12/31 02:42:26;;;;;;;10.95;9.07;;;3.30;1.00;;;;;;5006645;28;20215;-78
2020/12/31 02:44:53;;;;;;;12.13;9.45;;;3.30;1.00;;;;;;5020650;28;20215;-79
2020/12/31 02:47:19;;;;;;;9.73;8.40;;;3.20;1.00;;;;;;5023583;28;20239;-79
2020/12/31 02:49:45;;;;;;;13.27;10.43;;;3.20;1.00;;;;;;5013134;28;20353;-79
2020/12/31 02:52:11;;;;;;;10.82;9.82;;;3.10;1.00;;;;;;5014239;28;20262;-77
2020/12/31 02:54:38;;;;;;;12.55;11.25;;;3.10;1.00;;;;;;5020945;28;20303;-79
2020/12/31 02:57:06;;;;;;;14.15;11.07;;;3.20;1.00;;;;;;5023387;28;20249;-79
2020/12/31 02:59:32;;;;;;;11.43;10.13;;;3.10;1.00;;;;;;5017466;28;20236;-80
2020/12/31 03:01:58;;;;;;;11.80;10.60;;;3.10;1.00;;;;;;5011446;28;20676;-78
2020/12/31 03:04:24;;;;;;;11.48;10.35;;;3.10;1.00;;;;;;5006964;28;20253;-79
2020/12/31 03:06:51;;;;;;;10.93;9.82;;;3.10;1.00;;;;;;5010044;28;20235;-80
2020/12/31 03:09:17;;;;;;;11.63;10.45;;;3.10;1.00;;;;;;5017655;28;20234;-77
2020/12/31 03:11:43;;;;;;;13.27;11.25;;;3.00;1.00;;;;;;5025160;28;20234;-78
2020/12/31 03:14:10;;;;;;;12.52;9.30;;;3.00;1.00;;;;;;5029658;28;20267;-78
2020/12/31 03:16:36;;;;;;;12.23;11.00;;;2.90;1.00;;;;;;5021341;28;20363;-79
2020/12/31 03:19:02;;;;;;;11.00;9.65;;;2.90;1.00;;;;;;5015887;28;20373;-80
2020/12/31 03:21:30;;;;;;;11.98;10.30;;;2.80;1.00;;;;;;5013917;28;20270;-79
2020/12/31 03:23:56;;;;;;;11.60;10.30;;;2.80;1.00;;;;;;5012246;28;20234;-79
2020/12/31 03:26:22;;;;;;;12.40;10.38;;;2.80;1.00;;;;;;5018487;28;20219;-79
2020/12/31 03:28:48;;;;;;;11.43;10.23;;;2.70;1.00;;;;;;5010611;28;20277;-78
2020/12/31 03:31:16;;;;;;;10.43;9.43;;;2.80;1.00;;;;;;5015523;28;20343;-80
2020/12/31 03:33:42;;;;;;;11.20;10.02;;;2.80;1.00;;;;;;5017528;28;20309;-79
2020/12/31 03:36:08;;;;;;;11.65;10.45;;;2.80;1.00;;;;;;5010999;28;21037;-79
2020/12/31 03:38:34;;;;;;;11.60;10.38;;;2.80;1.00;;;;;;5014974;28;20219;-80
2020/12/31 03:41:01;;;;;;;11.35;10.25;;;2.70;1.00;;;;;;5010187;28;20235;-79
2020/12/31 03:43:27;;;;;;;10.93;9.55;;;2.80;1.00;;;;;;5013517;28;21012;-79
2020/12/31 03:45:53;;;;;;;11.75;10.55;;;2.80;1.00;;;;;;5009294;28;20231;-79
2020/12/31 03:48:20;;;;;;;12.45;10.45;;;2.90;1.00;;;;;;5016530;28;20282;-79
2020/12/31 03:50:46;;;;;;;12.25;11.02;;;2.80;1.00;;;;;;5027124;28;20287;-79
2020/12/31 03:53:13;;;;;;;11.82;10.73;;;2.80;1.00;;;;;;5019230;28;20231;-78
2020/12/31 03:55:39;;;;;;;14.40;10.60;;;2.80;1.00;;;;;;5032720;28;20230;-77
2020/12/31 03:58:05;;;;;;;13.48;10.40;;;2.80;1.00;;;;;;5020251;28;20425;-77
2020/12/31 04:00:32;;;;;;;11.88;10.23;;;2.70;1.00;;;;;;5021452;28;20266;-78
2020/12/31 04:02:58;;;;;;;12.07;10.90;;;2.70;1.00;;;;;;5013880;28;20262;-79
2020/12/31 04:05:25;;;;;;;14.45;10.05;;;2.70;1.00;;;;;;5018202;28;20229;-81
2020/12/31 04:07:51;;;;;;;11.80;10.63;;;2.70;1.00;;;;;;5027372;28;20215;-77
2020/12/31 04:10:17;;;;;;;13.82;10.70;;;2.70;1.00;;;;;;5027688;28;20215;-77
2020/12/31 04:12:43;;;;;;;12.68;10.65;;;2.80;1.00;;;;;;5032387;28;20267;-78
2020/12/31 04:15:10;;;;;;;11.30;9.93;;;2.80;1.00;;;;;;5030344;28;20286;-77
2020/12/31 04:17:36;;;;;;;12.75;11.27;;;2.90;1.00;;;;;;5033089;28;20274;-77
2020/12/31 04:20:04;;;;;;;11.70;10.05;;;2.90;1.00;;;;;;5026767;28;20274;-77
2020/12/31 04:22:32;;;;;;;10.50;9.50;;;2.80;1.00;;;;;;5025216;28;20241;-76
2020/12/31 04:24:58;;;;;;;12.15;10.88;;;2.80;1.00;;;;;;5019529;28;20239;-76
2020/12/31 04:27:24;;;;;;;13.50;10.82;;;2.80;1.00;;;;;;5015090;28;20258;-80
2020/12/31 04:29:50;;;;;;;11.27;10.18;;;2.80;1.00;;;;;;5015419;28;20258;-78
2020/12/31 04:32:16;;;;;;;12.48;10.27;;;2.90;1.00;;;;;;5011465;28;20226;-80
2020/12/31 04:34:43;;;;;;;13.18;10.75;;;2.90;1.00;;;;;;5016434;28;20221;-80
2020/12/31 04:37:09;;;;;;;12.75;10.48;;;3.00;1.00;;;;;;5009379;28;20282;-81
2020/12/31 04:39:36;;;;;;;14.95;13.00;;;3.00;1.00;;;;;;5010135;28;20334;-80
2020/12/31 04:42:02;;;;;;;14.65;12.20;;;3.10;1.00;;;;;;5011672;28;20246;-78
2020/12/31 04:44:29;;;;;;;14.20;12.05;;;3.10;1.00;;;;;;5014518;28;20223;-78
2020/12/31 04:46:57;;;;;;;13.95;12.45;;;3.10;1.00;;;;;;5014780;28;20263;-78
2020/12/31 04:49:28;;;;;;;13.38;11.07;;;3.10;1.00;;;;;;5021106;28;20221;-77
2020/12/31 04:51:55;;;;;;;13.15;11.68;;;3.10;1.00;;;;;;5032269;28;20231;-78
2020/12/31 04:54:22;;;;;;;12.43;10.95;;;3.10;1.00;;;;;;5031004;28;20215;-77
2020/12/31 04:56:49;;;;;;;16.38;12.95;;;3.10;1.00;;;;;;5028949;28;20238;-78
2020/12/31 04:59:16;;;;;;;12.85;11.38;;;3.00;1.00;;;;;;5020948;28;20231;-79
2020/12/31 05:01:45;;;;;;;15.20;12.15;;;2.90;1.00;;;;;;5030540;28;20234;-77
2020/12/31 05:04:13;;;;;;;14.63;13.07;;;2.90;1.00;;;;;;5038407;28;20215;-78
2020/12/31 05:06:40;;;;;;;12.35;10.40;;;3.20;1.00;;;;;;5036520;28;20233;-78
2020/12/31 05:09:15;;;;;;;12.82;10.95;;;3.10;1.00;;;;;;5026409;28;20268;-79
2020/12/31 05:11:46;;;;;;;11.43;10.32;;;3.00;1.00;;;;;;5012119;28;20731;-80
2020/12/31 05:14:14;;;;;;;13.40;11.80;;;2.90;1.00;;;;;;5009207;28;20230;-79
2020/12/31 05:16:40;;;;;;;14.25;11.10;;;2.80;1.00;;;;;;5013000;28;20238;-79
2020/12/31 05:19:25;;;;;;;11.68;9.88;;;2.80;1.00;;;;;;5012674;28;20247;-80
2020/12/31 05:22:11;;;;;;;14.23;11.18;;;2.80;1.00;;;;;;5012556;28;21042;-80
2020/12/31 05:24:38;;;;;;;11.93;10.13;;;2.70;1.00;;;;;;5013210;28;20227;-78
2020/12/31 05:27:19;;;;;;;11.40;9.90;;;2.70;1.00;;;;;;5009725;28;20393;-80
2020/12/31 05:29:56;;;;;;;11.85;9.60;;;2.60;1.00;;;;;;5014560;28;20338;-76
2020/12/31 05:32:23;;;;;;;12.10;10.07;;;2.60;1.00;;;;;;5036348;28;20207;-78
2020/12/31 05:34:49;;;;;;;12.15;10.40;;;2.60;1.00;;;;;;5031892;28;20405;-77
2020/12/31 05:37:17;;;;;;;11.60;10.18;;;2.60;1.00;;;;;;5025958;28;20225;-77
2020/12/31 05:39:55;;;;;;;11.77;10.15;;;2.60;1.00;;;;;;5013879;28;20266;-80
2020/12/31 05:42:22;;;;;;;12.75;10.65;;;2.60;1.00;;;;;;5014633;28;20298;-79
2020/12/31 05:45:08;;;;;;;15.65;11.20;;;2.60;1.00;;;;;;5021486;28;20226;-78
2020/12/31 05:47:36;;;;;;;12.43;10.40;;;2.60;1.00;;;;;;5021598;28;20227;-78
2020/12/31 05:50:15;;;;;;;11.70;10.50;;;2.50;1.00;;;;;;5017638;28;20314;-78
2020/12/31 05:52:41;;;;;;;12.10;10.80;;;2.40;1.00;;;;;;5013638;28;20223;-78
2020/12/31 05:55:08;;;;;;;12.90;10.55;;;2.30;1.00;;;;;;5011478;28;20229;-79
2020/12/31 05:57:42;;;;;;;13.45;11.50;;;2.30;1.00;;;;;;5010025;28;20704;-78
2020/12/31 06:00:11;;;;;;;14.35;11.10;;;2.20;1.00;;;;;;5011746;28;20256;-78
2020/12/31 06:02:42;;;;;;;12.48;10.70;;;2.20;1.00;;;;;;5007565;28;20227;-79
2020/12/31 06:05:10;;;;;;;12.57;10.00;;;2.10;1.00;;;;;;5012020;28;20278;-79
2020/12/31 06:07:42;;;;;;;12.05;10.68;;;2.10;1.00;;;;;;5006961;28;20321;-79
2020/12/31 06:10:12;;;;;;;14.90;11.45;;;2.00;1.00;;;;;;5009388;28;20704;-80
2020/12/31 06:12:49;;;;;;;14.73;11.18;;;2.00;1.00;;;;;;5007415;28;20463;-79
2020/12/31 06:15:22;;;;;;;12.73;11.30;;;2.00;1.00;;;;;;5013343;28;20224;-80
2020/12/31 06:17:49;;;;;;;14.35;12.20;;;1.90;1.00;;;;;;5011942;28;20255;-77
2020/12/31 06:20:16;;;;;;;12.13;10.25;;;1.80;1.00;;;;;;5023311;28;20427;-79
2020/12/31 06:23:07;;;;;;;13.45;10.55;;;1.80;1.00;;;;;;5034231;28;20226;-78
2020/12/31 06:25:39;;;;;;;12.70;10.70;;;1.80;1.00;;;;;;5026128;28;20231;-78
2020/12/31 06:28:09;;;;;;;13.27;11.18;;;1.80;1.00;;;;;;5024047;28;20228;-79
2020/12/31 06:30:38;;;;;;;13.25;11.60;;;1.80;1.00;;;;;;5014865;28;20227;-79
2020/12/31 06:33:10;;;;;;;12.75;10.77;;;1.80;1.00;;;;;;5016401;28;20261;-80
2020/12/31 06:35:38;;;;;;;13.32;11.40;;;1.80;1.00;;;;;;5008048;28;20298;-79
2020/12/31 06:38:05;;;;;;;14.82;11.75;;;1.90;1.00;;;;;;5009578;28;20234;-80
2020/12/31 06:40:33;;;;;;;15.48;11.32;;;1.90;1.00;;;;;;5006995;28;20286;-79
2020/12/31 06:43:10;;;;;;;17.80;12.70;;;2.00;1.00;;;;;;5007808;28;20250;-79
2020/12/31 06:45:40;;;;;;;14.70;12.43;;;2.00;1.00;;;;;;5007087;28;20258;-80
2020/12/31 06:48:34;;;;;;;13.75;11.07;;;2.00;1.00;;;;;;5008887;28;20247;-79
2020/12/31 06:51:02;;;;;;;13.05;10.38;;;1.90;1.00;;;;;;5012972;28;20275;-79
2020/12/31 06:53:33;;;;;;;12.80;10.40;;;1.80;1.00;;;;;;5015494;28;20321;-79
2020/12/31 06:56:01;;;;;;;11.75;10.52;;;1.80;1.00;;;;;;5022113;28;20234;-79
2020/12/31 06:58:27;;;;;;;14.60;11.52;;;1.80;1.00;;;;;;5021827;28;20218;-79
2020/12/31 07:00:55;;;;;;;13.63;11.80;;;1.80;1.00;;;;;;5032537;28;20257;-78
2020/12/31 07:03:47;;;;;;;12.50;10.75;;;1.80;1.00;;;;;;5032974;28;20331;-79
2020/12/31 07:06:32;;;;;;;11.82;10.13;;;1.80;1.00;;;;;;5015212;28;20218;-80
2020/12/31 07:09:00;;;;;;;13.70;11.15;;;1.70;1.00;;;;;;5011183;28;20226;-79
2020/12/31 07:11:35;;;;;;;11.65;10.45;;;1.80;1.00;;;;;;5021894;28;20210;-79
2020/12/31 07:14:03;;;;;;;13.85;10.60;;;1.80;1.00;;;;;;5035139;28;20222;-78
2020/12/31 07:16:41;;;;;;;13.80;10.35;;;1.70;1.00;;;;;;5029279;28;20230;-79
2020/12/31 07:19:08;;;;;;;15.43;10.23;;;1.80;1.00;;;;;;5033209;28;20216;-77
2020/12/31 07:21:38;;;;;;;11.35;10.15;;;1.80;1.00;;;;;;5036607;28;20211;-78
2020/12/31 07:24:24;;;;;;;14.82;11.20;;;1.80;1.00;;;;;;5032650;28;20230;-78
2020/12/31 07:26:51;;;;;;;14.48;11.93;;;1.80;1.00;;;;;;5022119;28;20223;-81
2020/12/31 07:29:25;;;;;;;12.98;10.70;;;1.80;1.00;;;;;;5017052;28;20293;-80
2020/12/31 07:31:52;;;;;;;16.20;11.80;;;1.70;1.00;;;;;;5019365;28;20283;-79
2020/12/31 07:34:21;;;;;;;14.60;11.00;;;1.70;1.00;;;;;;5014024;28;20225;-81
2020/12/31 07:36:58;;;;;;;13.38;10.45;;;1.70;1.00;;;;;;5014557;28;20235;-80
2020/12/31 07:39:25;;;;;;;12.93;9.95;;;1.70;1.00;;;;;;5012100;28;21042;-79
2020/12/31 07:41:51;;;;;;;12.25;11.00;;;1.70;1.00;;;;;;5026795;28;20621;-80
2020/12/31 07:44:17;;;;;;;15.80;11.80;;;1.70;1.00;;;;;;5014051;28;20775;-79
2020/12/31 07:46:44;;;;;;;11.77;9.90;;;1.70;1.00;;;;;;5017759;28;20310;-78
2020/12/31 07:49:11;;;;;;;13.90;11.25;;;1.80;1.00;;;;;;5011553;28;20274;-78
2020/12/31 07:51:38;;;;;;;12.30;10.75;;;1.90;1.00;;;;;;5012871;28;21043;-78
2020/12/31 07:54:04;;;;;;;12.10;10.75;;;2.00;1.00;;;;;;5014501;28;20231;-80
2020/12/31 07:56:32;;;;;;;13.25;10.75;;;2.10;1.00;;;;;;5011109;28;20267;-80
2020/12/31 07:59:01;;;;;;;11.23;9.88;;;2.20;1.00;;;;;;5012122;28;20223;-80
2020/12/31 08:01:27;;;;;;;12.88;10.38;;;2.30;1.00;;;;;;5013372;28;20227;-79
2020/12/31 08:03:54;;;;;;;9.90;8.90;;;2.30;1.00;;;;;;5014537;28;20287;-78
2020/12/31 08:06:27;;;;;;;11.38;9.90;;;2.40;1.00;;;;;;5012736;28;20322;-79
2020/12/31 08:08:54;;;;;;;13.75;10.45;;;2.50;1.00;;;;;;5007822;28;20240;-79
2020/12/31 08:11:20;;;;;;;13.30;10.63;;;2.60;1.00;;;;;;5008488;28;20797;-80
2020/12/31 08:13:47;;;;;;;11.40;9.50;;;2.60;1.00;;;;;;5013263;28;20338;-80
2020/12/31 08:16:15;;;;;;;12.75;9.93;;;2.70;1.00;;;;;;5009460;28;20255;-78
2020/12/31 08:18:42;;;;;;;13.05;9.95;;;2.70;1.00;;;;;;5013708;28;20249;-77
2020/12/31 08:21:08;;;;;;;12.15;9.52;;;2.80;1.00;;;;;;5011778;28;20311;-78
2020/12/31 08:23:39;;;;;;;10.88;9.07;;;2.80;1.00;;;;;;5011478;28;20436;-79
2020/12/31 08:26:09;;;;;;;11.25;9.77;;;2.70;1.00;;;;;;5015288;28;20728;-79
2020/12/31 08:28:37;;;;;;;9.70;8.68;;;2.70;1.00;;;;;;5014223;28;20253;-78
2020/12/31 08:31:10;;;;;;;12.90;10.20;;;2.80;1.00;;;;;;5016690;28;20962;-80
2020/12/31 08:33:38;;;;;;;12.10;9.40;;;2.80;1.00;;;;;;5014502;28;20231;-78
2020/12/31 08:36:06;;;;;;;13.77;12.25;;;2.80;1.00;;;;;;5010358;28;20257;-80
2020/12/31 08:38:38;;;;;;;12.23;9.23;;;2.80;1.00;;;;;;5016092;28;20229;-78
2020/12/31 08:41:06;;;;;;;9.60;8.30;;;2.90;1.00;;;;;;5015835;28;20342;-81
2020/12/31 08:43:35;;;;;;;11.70;9.40;;;3.00;1.00;;;;;;5016730;28;20266;-80
2020/12/31 08:46:01;;;;;;;10.63;9.57;;;3.00;1.00;;;;;;5022831;28;20310;-76
2020/12/31 08:48:30;;;;;;;10.88;8.73;;;3.10;1.00;;;;;;5033549;28;20238;-76
2020/12/31 08:51:06;;;;;;;9.32;8.20;;;3.10;1.00;;;;;;5029850;28;20234;-77
2020/12/31 08:53:46;;;;;;;9.77;8.30;;;3.10;1.00;;;;;;5016358;28;20245;-79
2020/12/31 08:56:14;;;;;;;10.13;9.00;;;3.20;1.00;;;;;;5032778;28;20241;-78
2020/12/31 08:58:40;;;;;;;10.48;8.23;;;3.20;1.00;;;;;;5018961;28;20227;-78
2020/12/31 09:01:06;;;;;;;8.27;7.43;;;3.30;1.00;;;;;;5016420;28;20218;-78
2020/12/31 09:03:33;;;;;;;9.65;7.72;;;3.30;1.00;;;;;;5014732;28;20268;-79
2020/12/31 09:06:00;;;;;;;9.35;7.60;;;3.40;1.00;;;;;;5016505;28;20233;-80
2020/12/31 09:08:27;;;;;;;9.77;8.20;;;3.40;1.00;;;;;;5024786;28;20219;-80
2020/12/31 09:11:04;;;;;;;9.52;8.32;;;3.50;1.00;;;;;;5033714;28;20222;-80
2020/12/31 09:13:36;;;;;;;8.23;7.40;;;3.50;1.00;;;;;;5008796;28;20223;-80
2020/12/31 09:16:12;;;;;;;8.13;7.32;;;3.60;1.00;;;;;;5016812;28;20231;-79
2020/12/31 09:18:39;;;;;;;9.68;8.27;;;3.70;1.00;;;;;;5016338;28;20235;-81
2020/12/31 09:21:06;;;;;;;8.95;7.80;;;3.70;1.00;;;;;;5018795;28;20231;-79
2020/12/31 09:23:32;;;;;;;8.30;7.60;;;3.80;1.00;;;;;;5021223;28;20219;-80
2020/12/31 09:25:59;;;;;;;9.27;7.50;;;3.80;1.00;;;;;;5017844;28;20230;-80
2020/12/31 09:28:26;;;;;;;8.38;7.18;;;3.90;1.00;;;;;;5022941;28;20300;-81
2020/12/31 09:30:54;;;;;;;8.35;7.13;;;4.00;1.00;;;;;;5021993;28;20219;-80
2020/12/31 09:33:22;;;;;;;8.57;7.68;;;4.10;1.00;;;;;;5015381;28;20227;-80
2020/12/31 09:35:49;;;;;;;7.90;7.10;;;4.10;1.00;;;;;;5018829;28;21190;-80
2020/12/31 09:38:16;;;;;;;8.23;7.40;;;4.20;1.00;;;;;;5017088;28;20232;-82
2020/12/31 09:40:43;;;;;;;8.73;7.90;;;4.20;1.00;;;;;;5020115;28;20697;-80
2020/12/31 09:43:11;;;;;;;9.65;7.47;;;4.30;1.00;;;;;;5032181;28;20349;-80
2020/12/31 09:45:38;;;;;;;7.32;6.45;;;4.40;1.00;;;;;;5037124;28;20214;-80
2020/12/31 09:48:06;;;;;;;9.35;7.07;;;4.50;1.00;;;;;;5034496;28;20227;-80
2020/12/31 09:50:33;;;;;;;7.30;6.57;;;4.40;1.00;;;;;;5027179;28;20253;-80
2020/12/31 09:53:01;;;;;;;7.43;6.63;;;4.50;1.00;;;;;;5016163;28;20227;-80
2020/12/31 09:55:27;;;;;;;7.90;7.10;;;4.50;1.00;;;;;;5015340;28;20227;-81
2020/12/31 09:57:53;;;;;;;7.90;6.80;;;4.60;1.00;;;;;;5013991;28;20239;-81
2020/12/31 10:00:20;;;;;;;9.80;6.47;;;4.70;1.00;;;;;;5015333;28;20425;-80
2020/12/31 10:02:46;;;;;;;7.05;5.80;;;4.70;1.00;;;;;;5015540;28;20231;-80
2020/12/31 10:05:13;;;;;;;6.18;5.57;;;4.90;1.00;;;;;;5014512;28;21139;-79
2020/12/31 10:07:40;;;;;;;5.60;5.10;;;4.80;1.00;;;;;;5021808;28;20238;-79
2020/12/31 10:10:06;;;;;;;7.47;6.78;;;4.70;1.00;;;;;;5025010;28;20210;-78
2020/12/31 10:12:32;;;;;;;7.20;6.60;;;4.70;1.00;;;;;;5012181;28;20374;-80
2020/12/31 10:14:59;;;;;;;6.50;5.82;;;4.70;1.00;;;;;;5022124;28;20932;-80
2020/12/31 10:17:25;;;;;;;8.00;6.95;;;4.70;1.00;;;;;;5014184;28;20237;-81
2020/12/31 10:19:56;;;;;;;7.43;6.30;;;4.70;1.00;;;;;;5019630;28;20331;-79
2020/12/31 10:22:25;;;;;;;6.32;5.72;;;4.80;1.00;;;;;;5019215;28;20219;-79
2020/12/31 10:24:51;;;;;;;6.40;5.80;;;4.90;1.00;;;;;;5024871;28;20241;-77
2020/12/31 10:27:18;;;;;;;7.72;7.00;;;4.90;1.00;;;;;;5020655;28;20246;-80
2020/12/31 10:29:44;;;;;;;7.20;5.40;;;4.90;1.00;;;;;;5014890;28;20215;-81
2020/12/31 10:32:10;;;;;;;6.68;5.97;;;5.00;1.00;;;;;;5029004;28;20227;-81
2020/12/31 10:34:36;;;;;;;6.68;6.13;;;5.00;1.00;;;;;;5015653;28;21096;-80
2020/12/31 10:37:03;;;;;;;5.90;5.40;;;5.00;1.00;;;;;;5012561;28;20246;-77
2020/12/31 10:39:30;;;;;;;6.13;5.53;;;5.00;1.00;;;;;;5008510;28;20239;-79
2020/12/31 10:41:56;;;;;;;6.78;6.18;;;5.00;1.00;;;;;;5010420;28;20219;-79
2020/12/31 10:44:22;;;;;;;6.50;5.82;;;4.90;1.00;;;;;;5022616;28;20721;-79
2020/12/31 10:46:49;;;;;;;6.03;5.53;;;4.80;1.00;;;;;;5015545;28;20234;-79
2020/12/31 10:49:15;;;;;;;6.97;5.72;;;4.90;1.00;;;;;;5019310;28;20385;-79
2020/12/31 10:51:41;;;;;;;7.45;6.75;;;4.90;1.00;;;;;;5017082;28;20277;-79
2020/12/31 10:54:08;;;;;;;7.55;6.82;;;5.00;1.00;;;;;;5026586;28;20230;-80
2020/12/31 10:56:35;;;;;;;7.13;6.15;;;5.20;1.00;;;;;;5023900;28;20270;-79
2020/12/31 10:59:05;;;;;;;6.97;6.38;;;5.30;1.00;;;;;;5023701;28;20239;-78
2020/12/31 11:01:31;;;;;;;7.47;6.70;;;5.40;1.00;;;;;;5016877;28;20282;-78
2020/12/31 11:03:58;;;;;;;6.80;6.05;;;5.50;1.00;;;;;;5009473;28;20226;-78
2020/12/31 11:06:26;;;;;;;6.60;5.85;;;5.50;1.00;;;;;;5018469;28;20238;-79
2020/12/31 11:08:53;;;;;;;7.30;6.07;;;6.00;1.00;;;;;;5010037;28;20222;-80
2020/12/31 11:11:21;;;;;;;5.88;5.28;;;6.60;1.00;;;;;;5002989;28;20233;-80
2020/12/31 11:13:49;;;;;;;6.00;5.45;;;7.40;1.00;;;;;;5010274;28;20226;-78
2020/12/31 11:16:16;;;;;;;7.03;6.22;;;8.10;1.00;;;;;;5008639;28;20242;-80
2020/12/31 11:18:42;;;;;;;6.60;5.10;;;8.80;1.00;;;;;;5029526;28;20238;-79
2020/12/31 11:21:13;;;;;;;7.43;6.68;;;9.10;1.00;;;;;;5014750;28;20234;-77
2020/12/31 11:23:39;;;;;;;6.03;5.45;;;9.30;1.00;;;;;;5008262;28;20314;-77
2020/12/31 11:26:10;;;;;;;8.10;6.10;;;9.50;1.00;;;;;;5009311;28;20214;-77
2020/12/31 11:28:36;;;;;;;6.18;5.68;;;9.70;1.00;;;;;;5001007;28;20231;-77
2020/12/31 11:31:03;;;;;;;6.50;5.95;;;10.00;1.00;;;;;;5013878;28;20226;-79
2020/12/31 11:33:30;;;;;;;6.38;5.70;;;9.90;1.00;;;;;;5012126;28;20291;-78
2020/12/31 11:35:56;;;;;;;6.55;5.95;;;10.00;1.00;;;;;;5019486;28;20220;-77
2020/12/31 11:38:22;;;;;;;5.50;5.10;;;10.30;1.00;;;;;;5025906;28;20245;-77
2020/12/31 11:40:48;;;;;;;8.13;6.75;;;10.10;1.00;;;;;;5028832;28;20226;-77
2020/12/31 11:43:15;;;;;;;6.38;5.65;;;9.80;1.00;;;;;;5022647;28;20230;-80
2020/12/31 11:45:41;;;;;;;6.93;5.47;;;9.60;1.00;;;;;;5007141;28;20294;-77
2020/12/31 11:48:08;;;;;;;6.50;5.15;;;9.50;1.00;;;;;;5010156;28;20257;-78
2020/12/31 11:50:34;;;;;;;5.00;4.57;;;10.00;1.00;;;;;;5005195;28;20236;-81
2020/12/31 11:53:01;;;;;;;6.00;5.47;;;10.60;1.00;;;;;;5014847;28;20315;-79
2020/12/31 11:55:27;;;;;;;6.03;5.43;;;10.40;1.00;;;;;;5011584;28;20363;-78
2020/12/31 11:57:53;;;;;;;6.00;5.50;;;10.30;1.00;;;;;;5010995;28;20411;-79
2020/12/31 12:00:20;;;;;;;6.00;5.43;;;10.40;1.00;;;;;;5014647;28;20224;-77
2020/12/31 12:02:46;;;;;;;7.30;6.32;;;10.10;1.00;;;;;;5008007;28;20224;-80
2020/12/31 12:05:13;;;;;;;7.25;6.05;;;9.80;1.00;;;;;;5016381;28;20219;-80
2020/12/31 12:07:39;;;;;;;6.10;5.43;;;9.60;1.00;;;;;;5011959;28;20274;-79
2020/12/31 12:10:07;;;;;;;7.10;6.30;;;9.80;1.00;;;;;;5013481;28;20985;-78
2020/12/31 12:12:35;;;;;;;6.18;5.57;;;9.30;1.00;;;;;;5012710;28;21139;-80
2020/12/31 12:15:01;;;;;;;6.47;5.97;;;9.20;1.00;;;;;;5015595;28;20306;-79
2020/12/31 12:17:28;;;;;;;5.80;5.30;;;9.00;1.00;;;;;;5013388;28;20281;-78
2020/12/31 12:19:54;;;;;;;7.78;5.45;;;9.20;1.00;;;;;;5008971;28;20239;-77
2020/12/31 12:22:21;;;;;;;6.80;6.20;;;9.20;1.00;;;;;;5016232;28;20942;-77
2020/12/31 12:24:47;;;;;;;7.07;6.40;;;8.70;1.00;;;;;;5017050;28;20226;-78
2020/12/31 12:27:13;;;;;;;6.72;6.13;;;8.20;1.00;;;;;;5018068;28;20239;-78
2020/12/31 12:29:40;;;;;;;5.63;5.13;;;8.10;1.00;;;;;;5021635;28;20282;-79
2020/12/31 12:32:10;;;;;;;6.20;5.60;;;8.00;1.00;;;;;;5032774;28;20226;-80
2020/12/31 12:34:37;;;;;;;6.90;6.30;;;8.00;1.00;;;;;;5014645;28;20226;-78
2020/12/31 12:37:04;;;;;;;6.95;6.25;;;8.00;1.00;;;;;;5009839;28;20337;-78
2020/12/31 12:39:37;;;;;;;6.68;6.07;;;8.00;1.00;;;;;;5021835;28;20255;-79
2020/12/31 12:42:06;;;;;;;6.05;5.45;;;8.20;1.00;;;;;;5007725;28;20262;-78
2020/12/31 12:44:32;;;;;;;6.07;5.47;;;8.30;1.00;;;;;;5014585;28;20230;-78
2020/12/31 12:46:59;;;;;;;5.90;5.35;;;8.00;1.00;;;;;;5013708;28;20226;-77
2020/12/31 12:49:25;;;;;;;7.80;7.10;;;7.80;1.00;;;;;;5022052;28;21099;-79
2020/12/31 12:51:51;;;;;;;5.80;5.30;;;7.90;1.00;;;;;;5029408;28;20242;-78
2020/12/31 12:54:17;;;;;;;6.20;5.70;;;7.80;1.00;;;;;;5032423;28;20221;-79
2020/12/31 12:56:50;;;;;;;6.65;6.15;;;7.60;1.00;;;;;;5025883;28;20321;-77
2020/12/31 12:59:17;;;;;;;6.93;6.22;;;7.40;1.00;;;;;;5032773;28;20226;-84